Hubbell, Indiana
Current Conditions -  °F | °C
As of 6:53 PM on Saturday 22 Nov 2014 (Local Time) from KBMG Reporting Station
Overcast Overcast  
Wind Chill: 55°   Ceiling: 10000
Heat Index: 55°   Visibility: 10mi
Dew Point: 41°   Wind: 10mph
Humidity: 59%   Direction: 200°SSW
Pressure: 30.03"   Gusts: 25mph
Location:  39.2488°N, 86.9879°W
Report Text: KBMG 222353Z 20009G22KT 10SM SCT080 OVC100 13/05 A3003 RMK AO2 RAB15E29 SLP172 P0000 60000 T01280050 10144 20128 57004
Loading
Personal Weather Stations






























Interactive Weather Map New forecast layout! Learn more

10-Day Weather Forecast

Advertisements
Track Severe Weather on mobile